sensor_id;sensor_type;location;lat;lon;timestamp;P1;durP1;ratioP1;P2;durP2;ratioP2
17570;SDS011;8903;52.220;20.978;2022-12-18T00:00:59;53.93;;;26.97;;
17570;SDS011;8903;52.220;20.978;2022-12-18T00:03:31;51.43;;;26.50;;
17570;SDS011;8903;52.220;20.978;2022-12-18T00:05:58;47.53;;;24.93;;
17570;SDS011;8903;52.220;20.978;2022-12-18T00:08:25;58.97;;;29.40;;
17570;SDS011;8903;52.220;20.978;2022-12-18T00:10:52;54.03;;;26.07;;
17570;SDS011;8903;52.220;20.978;2022-12-18T00:13:20;54.40;;;28.13;;
17570;SDS011;8903;52.220;20.978;2022-12-18T00:15:47;59.93;;;28.63;;
17570;SDS011;8903;52.220;20.978;2022-12-18T00:18:14;59.00;;;27.43;;
17570;SDS011;8903;52.220;20.978;2022-12-18T00:20:41;52.73;;;26.70;;
17570;SDS011;8903;52.220;20.978;2022-12-18T00:23:07;59.43;;;26.97;;
17570;SDS011;8903;52.220;20.978;2022-12-18T00:25:35;55.50;;;27.10;;
17570;SDS011;8903;52.220;20.978;2022-12-18T00:28:02;57.40;;;27.17;;
17570;SDS011;8903;52.220;20.978;2022-12-18T00:30:30;63.23;;;30.50;;
17570;SDS011;8903;52.220;20.978;2022-12-18T00:32:57;55.97;;;29.37;;
17570;SDS011;8903;52.220;20.978;2022-12-18T00:35:24;59.97;;;30.30;;
17570;SDS011;8903;52.220;20.978;2022-12-18T00:37:51;55.07;;;29.60;;
17570;SDS011;8903;52.220;20.978;2022-12-18T00:40:18;56.73;;;26.80;;
17570;SDS011;8903;52.220;20.978;2022-12-18T00:42:45;60.93;;;29.17;;
17570;SDS011;8903;52.220;20.978;2022-12-18T00:45:23;54.73;;;28.60;;
17570;SDS011;8903;52.220;20.978;2022-12-18T00:47:52;51.00;;;25.80;;
17570;SDS011;8903;52.220;20.978;2022-12-18T00:50:20;50.50;;;29.33;;
17570;SDS011;8903;52.220;20.978;2022-12-18T00:52:48;65.50;;;27.40;;
17570;SDS011;8903;52.220;20.978;2022-12-18T00:55:15;57.23;;;26.43;;
17570;SDS011;8903;52.220;20.978;2022-12-18T00:57:43;65.00;;;31.60;;
17570;SDS011;8903;52.220;20.978;2022-12-18T01:00:11;59.23;;;27.70;;
17570;SDS011;8903;52.220;20.978;2022-12-18T01:02:40;52.27;;;27.10;;
17570;SDS011;8903;52.220;20.978;2022-12-18T01:05:09;56.07;;;27.00;;
17570;SDS011;8903;52.220;20.978;2022-12-18T01:07:41;56.80;;;26.00;;
17570;SDS011;8903;52.220;20.978;2022-12-18T01:10:09;55.37;;;28.37;;
17570;SDS011;8903;52.220;20.978;2022-12-18T01:12:38;58.10;;;27.70;;
17570;SDS011;8903;52.220;20.978;2022-12-18T01:15:06;63.67;;;29.10;;
17570;SDS011;8903;52.220;20.978;2022-12-18T01:17:39;50.57;;;28.60;;
17570;SDS011;8903;52.220;20.978;2022-12-18T01:20:06;58.47;;;27.47;;
17570;SDS011;8903;52.220;20.978;2022-12-18T01:22:37;51.03;;;26.03;;
17570;SDS011;8903;52.220;20.978;2022-12-18T01:25:06;69.33;;;30.40;;
17570;SDS011;8903;52.220;20.978;2022-12-18T01:27:34;60.60;;;26.20;;
17570;SDS011;8903;52.220;20.978;2022-12-18T01:30:03;60.60;;;29.40;;
17570;SDS011;8903;52.220;20.978;2022-12-18T01:32:31;55.23;;;27.20;;
17570;SDS011;8903;52.220;20.978;2022-12-18T01:34:58;53.57;;;28.50;;
17570;SDS011;8903;52.220;20.978;2022-12-18T01:37:27;55.57;;;29.10;;
17570;SDS011;8903;52.220;20.978;2022-12-18T01:39:54;56.53;;;28.67;;
17570;SDS011;8903;52.220;20.978;2022-12-18T01:42:21;68.77;;;30.80;;
17570;SDS011;8903;52.220;20.978;2022-12-18T01:44:59;59.07;;;26.60;;
17570;SDS011;8903;52.220;20.978;2022-12-18T01:47:30;48.73;;;25.80;;
17570;SDS011;8903;52.220;20.978;2022-12-18T01:50:01;55.23;;;26.27;;
17570;SDS011;8903;52.220;20.978;2022-12-18T01:52:31;54.37;;;25.90;;
17570;SDS011;8903;52.220;20.978;2022-12-18T01:55:00;54.87;;;27.60;;
17570;SDS011;8903;52.220;20.978;2022-12-18T01:57:31;59.40;;;25.20;;
17570;SDS011;8903;52.220;20.978;2022-12-18T01:59:59;52.83;;;24.20;;
17570;SDS011;8903;52.220;20.978;2022-12-18T02:02:38;58.47;;;27.43;;
17570;SDS011;8903;52.220;20.978;2022-12-18T02:05:06;61.37;;;28.63;;
17570;SDS011;8903;52.220;20.978;2022-12-18T02:07:40;58.43;;;25.97;;
17570;SDS011;8903;52.220;20.978;2022-12-18T02:10:14;49.83;;;27.13;;
17570;SDS011;8903;52.220;20.978;2022-12-18T02:12:48;50.30;;;24.20;;
17570;SDS011;8903;52.220;20.978;2022-12-18T02:15:19;56.70;;;28.90;;
17570;SDS011;8903;52.220;20.978;2022-12-18T02:17:54;58.93;;;23.90;;
17570;SDS011;8903;52.220;20.978;2022-12-18T02:20:27;57.67;;;26.50;;
17570;SDS011;8903;52.220;20.978;2022-12-18T02:23:06;54.87;;;25.20;;
17570;SDS011;8903;52.220;20.978;2022-12-18T02:25:54;52.40;;;24.13;;
17570;SDS011;8903;52.220;20.978;2022-12-18T02:28:34;55.77;;;26.23;;
17570;SDS011;8903;52.220;20.978;2022-12-18T02:31:06;45.27;;;24.40;;
17570;SDS011;8903;52.220;20.978;2022-12-18T02:33:38;65.13;;;27.83;;
17570;SDS011;8903;52.220;20.978;2022-12-18T02:36:06;57.70;;;26.93;;
17570;SDS011;8903;52.220;20.978;2022-12-18T02:38:36;56.67;;;26.60;;
17570;SDS011;8903;52.220;20.978;2022-12-18T02:41:11;63.97;;;27.73;;
17570;SDS011;8903;52.220;20.978;2022-12-18T02:43:40;50.07;;;22.93;;
17570;SDS011;8903;52.220;20.978;2022-12-18T02:46:24;65.20;;;28.23;;
17570;SDS011;8903;52.220;20.978;2022-12-18T02:48:57;57.30;;;26.97;;
17570;SDS011;8903;52.220;20.978;2022-12-18T02:51:32;56.23;;;26.37;;
17570;SDS011;8903;52.220;20.978;2022-12-18T02:54:08;57.30;;;26.00;;
17570;SDS011;8903;52.220;20.978;2022-12-18T02:56:43;71.97;;;31.53;;
17570;SDS011;8903;52.220;20.978;2022-12-18T02:59:16;61.20;;;27.87;;
17570;SDS011;8903;52.220;20.978;2022-12-18T03:01:54;61.67;;;31.87;;
17570;SDS011;8903;52.220;20.978;2022-12-18T03:04:26;53.00;;;24.47;;
17570;SDS011;8903;52.220;20.978;2022-12-18T03:06:57;61.30;;;27.23;;
17570;SDS011;8903;52.220;20.978;2022-12-18T03:09:27;62.47;;;26.67;;
17570;SDS011;8903;52.220;20.978;2022-12-18T03:12:00;54.67;;;26.00;;
17570;SDS011;8903;52.220;20.978;2022-12-18T03:14:49;61.23;;;25.70;;
17570;SDS011;8903;52.220;20.978;2022-12-18T03:17:19;53.80;;;25.23;;
17570;SDS011;8903;52.220;20.978;2022-12-18T03:19:50;61.73;;;27.07;;
17570;SDS011;8903;52.220;20.978;2022-12-18T03:22:19;65.83;;;29.40;;
17570;SDS011;8903;52.220;20.978;2022-12-18T03:24:51;58.57;;;27.90;;
17570;SDS011;8903;52.220;20.978;2022-12-18T03:27:21;61.90;;;26.77;;
17570;SDS011;8903;52.220;20.978;2022-12-18T03:29:54;58.60;;;26.97;;
17570;SDS011;8903;52.220;20.978;2022-12-18T03:32:33;71.03;;;31.33;;
17570;SDS011;8903;52.220;20.978;2022-12-18T03:35:06;60.33;;;25.47;;
17570;SDS011;8903;52.220;20.978;2022-12-18T03:37:36;69.53;;;29.23;;
17570;SDS011;8903;52.220;20.978;2022-12-18T03:40:04;65.10;;;28.60;;
17570;SDS011;8903;52.220;20.978;2022-12-18T03:42:36;64.47;;;27.93;;
17570;SDS011;8903;52.220;20.978;2022-12-18T03:45:11;61.27;;;28.67;;
17570;SDS011;8903;52.220;20.978;2022-12-18T03:47:47;56.27;;;24.90;;
17570;SDS011;8903;52.220;20.978;2022-12-18T03:50:25;57.67;;;25.07;;
17570;SDS011;8903;52.220;20.978;2022-12-18T03:53:04;47.13;;;24.20;;
17570;SDS011;8903;52.220;20.978;2022-12-18T03:55:38;63.43;;;26.13;;
17570;SDS011;8903;52.220;20.978;2022-12-18T03:58:08;57.80;;;28.37;;
17570;SDS011;8903;52.220;20.978;2022-12-18T04:00:56;58.87;;;26.43;;
17570;SDS011;8903;52.220;20.978;2022-12-18T04:03:25;60.87;;;26.20;;
17570;SDS011;8903;52.220;20.978;2022-12-18T04:05:55;55.60;;;24.83;;
17570;SDS011;8903;52.220;20.978;2022-12-18T04:08:26;57.40;;;24.67;;
17570;SDS011;8903;52.220;20.978;2022-12-18T04:11:01;59.70;;;25.23;;
17570;SDS011;8903;52.220;20.978;2022-12-18T04:13:31;62.87;;;25.50;;
17570;SDS011;8903;52.220;20.978;2022-12-18T04:16:02;68.37;;;28.50;;
17570;SDS011;8903;52.220;20.978;2022-12-18T04:18:29;54.03;;;24.60;;
17570;SDS011;8903;52.220;20.978;2022-12-18T04:20:58;49.50;;;21.70;;
17570;SDS011;8903;52.220;20.978;2022-12-18T04:23:26;55.57;;;23.40;;
17570;SDS011;8903;52.220;20.978;2022-12-18T04:25:56;45.90;;;20.30;;
17570;SDS011;8903;52.220;20.978;2022-12-18T04:28:47;48.73;;;22.60;;
17570;SDS011;8903;52.220;20.978;2022-12-18T04:31:14;47.57;;;21.87;;
17570;SDS011;8903;52.220;20.978;2022-12-18T04:33:41;56.50;;;23.53;;
17570;SDS011;8903;52.220;20.978;2022-12-18T04:36:09;44.13;;;20.03;;
17570;SDS011;8903;52.220;20.978;2022-12-18T04:38:38;48.73;;;20.83;;
17570;SDS011;8903;52.220;20.978;2022-12-18T04:41:10;53.73;;;23.57;;
17570;SDS011;8903;52.220;20.978;2022-12-18T04:43:41;41.70;;;21.10;;
17570;SDS011;8903;52.220;20.978;2022-12-18T04:46:09;45.33;;;19.53;;
17570;SDS011;8903;52.220;20.978;2022-12-18T04:48:36;52.17;;;21.03;;
17570;SDS011;8903;52.220;20.978;2022-12-18T04:51:04;50.93;;;22.73;;
17570;SDS011;8903;52.220;20.978;2022-12-18T04:53:31;42.77;;;20.30;;
17570;SDS011;8903;52.220;20.978;2022-12-18T04:56:02;57.23;;;20.93;;
17570;SDS011;8903;52.220;20.978;2022-12-18T04:58:30;46.33;;;19.80;;
17570;SDS011;8903;52.220;20.978;2022-12-18T05:00:57;45.60;;;21.13;;
17570;SDS011;8903;52.220;20.978;2022-12-18T05:03:26;51.83;;;22.00;;
17570;SDS011;8903;52.220;20.978;2022-12-18T05:05:53;51.07;;;23.10;;
17570;SDS011;8903;52.220;20.978;2022-12-18T05:08:20;47.67;;;21.80;;
17570;SDS011;8903;52.220;20.978;2022-12-18T05:10:47;45.73;;;22.10;;
17570;SDS011;8903;52.220;20.978;2022-12-18T05:13:13;50.53;;;23.17;;
17570;SDS011;8903;52.220;20.978;2022-12-18T05:15:40;52.40;;;21.40;;
17570;SDS011;8903;52.220;20.978;2022-12-18T05:18:07;50.67;;;22.80;;
17570;SDS011;8903;52.220;20.978;2022-12-18T05:20:36;51.23;;;21.03;;
17570;SDS011;8903;52.220;20.978;2022-12-18T05:23:03;55.10;;;20.50;;
17570;SDS011;8903;52.220;20.978;2022-12-18T05:25:30;55.53;;;24.33;;
17570;SDS011;8903;52.220;20.978;2022-12-18T05:27:57;53.20;;;22.40;;
17570;SDS011;8903;52.220;20.978;2022-12-18T05:30:24;48.63;;;23.27;;
17570;SDS011;8903;52.220;20.978;2022-12-18T05:32:51;67.37;;;26.97;;
17570;SDS011;8903;52.220;20.978;2022-12-18T05:35:17;59.47;;;24.57;;
17570;SDS011;8903;52.220;20.978;2022-12-18T05:37:46;56.10;;;25.70;;
17570;SDS011;8903;52.220;20.978;2022-12-18T05:40:13;65.70;;;26.07;;
17570;SDS011;8903;52.220;20.978;2022-12-18T05:42:40;72.50;;;27.40;;
17570;SDS011;8903;52.220;20.978;2022-12-18T05:45:07;66.10;;;27.63;;
17570;SDS011;8903;52.220;20.978;2022-12-18T05:47:34;73.83;;;28.13;;
17570;SDS011;8903;52.220;20.978;2022-12-18T05:50:01;62.23;;;27.27;;
17570;SDS011;8903;52.220;20.978;2022-12-18T05:52:28;59.17;;;25.07;;
17570;SDS011;8903;52.220;20.978;2022-12-18T05:54:57;66.07;;;25.10;;
17570;SDS011;8903;52.220;20.978;2022-12-18T05:57:25;67.53;;;26.37;;
17570;SDS011;8903;52.220;20.978;2022-12-18T05:59:52;65.00;;;25.43;;
17570;SDS011;8903;52.220;20.978;2022-12-18T06:02:18;64.53;;;29.63;;
17570;SDS011;8903;52.220;20.978;2022-12-18T06:04:46;65.77;;;25.90;;
17570;SDS011;8903;52.220;20.978;2022-12-18T06:07:13;63.47;;;27.07;;
17570;SDS011;8903;52.220;20.978;2022-12-18T06:09:40;54.73;;;24.73;;
17570;SDS011;8903;52.220;20.978;2022-12-18T06:12:08;67.07;;;25.67;;
17570;SDS011;8903;52.220;20.978;2022-12-18T06:14:35;67.07;;;28.87;;
17570;SDS011;8903;52.220;20.978;2022-12-18T06:17:02;65.37;;;28.37;;
17570;SDS011;8903;52.220;20.978;2022-12-18T06:19:29;70.30;;;28.50;;
17570;SDS011;8903;52.220;20.978;2022-12-18T06:21:56;67.97;;;26.67;;
17570;SDS011;8903;52.220;20.978;2022-12-18T06:24:24;69.57;;;27.87;;
17570;SDS011;8903;52.220;20.978;2022-12-18T06:26:51;61.00;;;27.70;;
17570;SDS011;8903;52.220;20.978;2022-12-18T06:29:19;83.03;;;31.50;;
17570;SDS011;8903;52.220;20.978;2022-12-18T06:31:46;76.73;;;27.70;;
17570;SDS011;8903;52.220;20.978;2022-12-18T06:34:13;74.17;;;27.97;;
17570;SDS011;8903;52.220;20.978;2022-12-18T06:36:39;59.27;;;28.13;;
17570;SDS011;8903;52.220;20.978;2022-12-18T06:39:07;71.33;;;28.27;;
17570;SDS011;8903;52.220;20.978;2022-12-18T06:41:33;73.53;;;28.00;;
17570;SDS011;8903;52.220;20.978;2022-12-18T06:44:00;68.90;;;27.93;;
17570;SDS011;8903;52.220;20.978;2022-12-18T06:46:29;81.60;;;27.70;;
17570;SDS011;8903;52.220;20.978;2022-12-18T06:48:57;74.60;;;28.00;;
17570;SDS011;8903;52.220;20.978;2022-12-18T06:51:24;62.17;;;26.27;;
17570;SDS011;8903;52.220;20.978;2022-12-18T06:53:51;81.13;;;27.33;;
17570;SDS011;8903;52.220;20.978;2022-12-18T06:56:18;56.93;;;26.87;;
17570;SDS011;8903;52.220;20.978;2022-12-18T06:58:45;79.43;;;29.87;;
17570;SDS011;8903;52.220;20.978;2022-12-18T07:01:12;71.50;;;28.40;;
17570;SDS011;8903;52.220;20.978;2022-12-18T07:03:41;61.27;;;27.03;;
17570;SDS011;8903;52.220;20.978;2022-12-18T07:06:12;74.30;;;27.90;;
17570;SDS011;8903;52.220;20.978;2022-12-18T07:08:40;63.60;;;28.10;;
17570;SDS011;8903;52.220;20.978;2022-12-18T07:11:07;62.53;;;28.20;;
17570;SDS011;8903;52.220;20.978;2022-12-18T07:13:34;63.10;;;26.63;;
17570;SDS011;8903;52.220;20.978;2022-12-18T07:16:04;66.13;;;26.73;;
17570;SDS011;8903;52.220;20.978;2022-12-18T07:18:33;61.17;;;26.03;;
17570;SDS011;8903;52.220;20.978;2022-12-18T07:21:03;79.93;;;31.50;;
17570;SDS011;8903;52.220;20.978;2022-12-18T07:23:31;62.80;;;26.03;;
17570;SDS011;8903;52.220;20.978;2022-12-18T07:26:00;82.20;;;30.10;;
17570;SDS011;8903;52.220;20.978;2022-12-18T07:28:28;66.87;;;29.93;;
17570;SDS011;8903;52.220;20.978;2022-12-18T07:30:55;68.63;;;27.90;;
17570;SDS011;8903;52.220;20.978;2022-12-18T07:33:22;76.70;;;27.77;;
17570;SDS011;8903;52.220;20.978;2022-12-18T07:35:48;71.57;;;31.37;;
17570;SDS011;8903;52.220;20.978;2022-12-18T07:38:17;75.67;;;30.40;;
17570;SDS011;8903;52.220;20.978;2022-12-18T07:40:44;71.47;;;30.50;;
17570;SDS011;8903;52.220;20.978;2022-12-18T07:43:11;58.53;;;25.30;;
17570;SDS011;8903;52.220;20.978;2022-12-18T07:45:38;68.37;;;27.17;;
17570;SDS011;8903;52.220;20.978;2022-12-18T07:48:05;59.97;;;28.00;;
17570;SDS011;8903;52.220;20.978;2022-12-18T07:50:32;81.27;;;28.70;;
17570;SDS011;8903;52.220;20.978;2022-12-18T07:52:59;82.97;;;28.70;;
17570;SDS011;8903;52.220;20.978;2022-12-18T07:55:30;91.97;;;30.90;;
17570;SDS011;8903;52.220;20.978;2022-12-18T07:57:57;73.83;;;30.53;;
17570;SDS011;8903;52.220;20.978;2022-12-18T08:00:27;69.20;;;26.37;;
17570;SDS011;8903;52.220;20.978;2022-12-18T08:02:54;76.50;;;28.00;;
17570;SDS011;8903;52.220;20.978;2022-12-18T08:05:21;73.33;;;29.50;;
17570;SDS011;8903;52.220;20.978;2022-12-18T08:07:48;63.63;;;27.40;;
17570;SDS011;8903;52.220;20.978;2022-12-18T08:10:15;62.27;;;28.87;;
17570;SDS011;8903;52.220;20.978;2022-12-18T08:12:43;71.30;;;26.43;;
17570;SDS011;8903;52.220;20.978;2022-12-18T08:15:10;72.43;;;26.83;;
17570;SDS011;8903;52.220;20.978;2022-12-18T08:17:37;72.07;;;28.00;;
17570;SDS011;8903;52.220;20.978;2022-12-18T08:20:04;75.07;;;30.60;;
17570;SDS011;8903;52.220;20.978;2022-12-18T08:22:33;73.33;;;30.33;;
17570;SDS011;8903;52.220;20.978;2022-12-18T08:25:00;49.43;;;23.40;;
17570;SDS011;8903;52.220;20.978;2022-12-18T08:27:27;61.80;;;29.60;;
17570;SDS011;8903;52.220;20.978;2022-12-18T08:29:55;69.23;;;27.20;;
17570;SDS011;8903;52.220;20.978;2022-12-18T08:32:22;62.70;;;27.90;;
17570;SDS011;8903;52.220;20.978;2022-12-18T08:34:49;81.27;;;28.50;;
17570;SDS011;8903;52.220;20.978;2022-12-18T08:37:16;72.53;;;28.87;;
17570;SDS011;8903;52.220;20.978;2022-12-18T08:39:43;71.67;;;30.33;;
17570;SDS011;8903;52.220;20.978;2022-12-18T08:42:09;65.73;;;28.43;;
17570;SDS011;8903;52.220;20.978;2022-12-18T08:44:55;59.27;;;24.53;;
17570;SDS011;8903;52.220;20.978;2022-12-18T08:47:22;76.80;;;29.00;;
17570;SDS011;8903;52.220;20.978;2022-12-18T08:49:51;68.70;;;28.57;;
17570;SDS011;8903;52.220;20.978;2022-12-18T08:52:18;71.40;;;29.40;;
17570;SDS011;8903;52.220;20.978;2022-12-18T08:54:44;68.40;;;27.37;;
17570;SDS011;8903;52.220;20.978;2022-12-18T08:57:11;71.20;;;29.13;;
17570;SDS011;8903;52.220;20.978;2022-12-18T08:59:38;68.17;;;29.27;;
17570;SDS011;8903;52.220;20.978;2022-12-18T09:02:07;69.10;;;30.63;;
17570;SDS011;8903;52.220;20.978;2022-12-18T09:04:35;70.03;;;28.10;;
17570;SDS011;8903;52.220;20.978;2022-12-18T09:07:02;77.13;;;31.63;;
17570;SDS011;8903;52.220;20.978;2022-12-18T09:09:29;71.90;;;32.73;;
17570;SDS011;8903;52.220;20.978;2022-12-18T09:11:56;69.80;;;30.87;;
17570;SDS011;8903;52.220;20.978;2022-12-18T09:14:23;76.47;;;35.03;;
17570;SDS011;8903;52.220;20.978;2022-12-18T09:16:50;69.00;;;31.97;;
17570;SDS011;8903;52.220;20.978;2022-12-18T09:19:18;72.20;;;31.30;;
17570;SDS011;8903;52.220;20.978;2022-12-18T09:21:45;83.60;;;33.57;;
17570;SDS011;8903;52.220;20.978;2022-12-18T09:24:12;81.53;;;34.57;;
17570;SDS011;8903;52.220;20.978;2022-12-18T09:26:40;76.33;;;32.40;;
17570;SDS011;8903;52.220;20.978;2022-12-18T09:29:06;67.57;;;33.63;;
17570;SDS011;8903;52.220;20.978;2022-12-18T09:31:34;86.47;;;35.07;;
17570;SDS011;8903;52.220;20.978;2022-12-18T09:34:01;78.30;;;34.60;;
17570;SDS011;8903;52.220;20.978;2022-12-18T09:36:33;95.20;;;38.90;;
17570;SDS011;8903;52.220;20.978;2022-12-18T09:39:00;86.90;;;35.20;;
17570;SDS011;8903;52.220;20.978;2022-12-18T09:44:17;79.70;;;33.87;;
17570;SDS011;8903;52.220;20.978;2022-12-18T09:46:48;99.63;;;39.73;;
17570;SDS011;8903;52.220;20.978;2022-12-18T09:49:26;95.57;;;38.67;;
17570;SDS011;8903;52.220;20.978;2022-12-18T09:51:59;91.13;;;41.97;;
17570;SDS011;8903;52.220;20.978;2022-12-18T09:54:31;93.30;;;39.80;;
17570;SDS011;8903;52.220;20.978;2022-12-18T09:57:01;80.30;;;36.43;;
17570;SDS011;8903;52.220;20.978;2022-12-18T09:59:30;98.60;;;37.67;;
17570;SDS011;8903;52.220;20.978;2022-12-18T10:02:08;84.80;;;38.57;;
17570;SDS011;8903;52.220;20.978;2022-12-18T10:04:41;101.27;;;40.57;;
17570;SDS011;8903;52.220;20.978;2022-12-18T10:07:11;88.30;;;36.90;;
17570;SDS011;8903;52.220;20.978;2022-12-18T10:09:46;89.43;;;40.93;;
17570;SDS011;8903;52.220;20.978;2022-12-18T10:12:23;72.67;;;31.27;;
17570;SDS011;8903;52.220;20.978;2022-12-18T10:15:01;98.07;;;39.20;;
17570;SDS011;8903;52.220;20.978;2022-12-18T10:17:34;83.77;;;35.53;;
17570;SDS011;8903;52.220;20.978;2022-12-18T10:20:10;90.70;;;36.40;;
17570;SDS011;8903;52.220;20.978;2022-12-18T10:22:46;81.97;;;36.60;;
17570;SDS011;8903;52.220;20.978;2022-12-18T10:25:21;91.87;;;39.23;;
17570;SDS011;8903;52.220;20.978;2022-12-18T10:27:51;91.10;;;38.97;;
17570;SDS011;8903;52.220;20.978;2022-12-18T10:30:21;101.83;;;42.80;;
17570;SDS011;8903;52.220;20.978;2022-12-18T10:32:49;96.40;;;37.83;;
17570;SDS011;8903;52.220;20.978;2022-12-18T10:35:17;93.50;;;38.60;;
17570;SDS011;8903;52.220;20.978;2022-12-18T10:38:04;79.27;;;35.77;;
17570;SDS011;8903;52.220;20.978;2022-12-18T10:40:33;98.37;;;39.03;;
17570;SDS011;8903;52.220;20.978;2022-12-18T10:43:14;88.60;;;37.93;;
17570;SDS011;8903;52.220;20.978;2022-12-18T10:45:57;89.77;;;36.03;;
17570;SDS011;8903;52.220;20.978;2022-12-18T10:48:27;98.33;;;39.50;;
17570;SDS011;8903;52.220;20.978;2022-12-18T10:50:54;82.07;;;35.10;;
17570;SDS011;8903;52.220;20.978;2022-12-18T10:53:24;102.50;;;37.97;;
17570;SDS011;8903;52.220;20.978;2022-12-18T10:55:53;89.33;;;38.73;;
17570;SDS011;8903;52.220;20.978;2022-12-18T10:58:25;93.10;;;40.77;;
17570;SDS011;8903;52.220;20.978;2022-12-18T11:01:06;88.30;;;35.37;;
17570;SDS011;8903;52.220;20.978;2022-12-18T11:03:35;100.47;;;36.33;;
17570;SDS011;8903;52.220;20.978;2022-12-18T11:06:07;88.83;;;38.67;;
17570;SDS011;8903;52.220;20.978;2022-12-18T11:08:38;102.27;;;40.30;;
17570;SDS011;8903;52.220;20.978;2022-12-18T11:11:09;102.57;;;41.43;;
17570;SDS011;8903;52.220;20.978;2022-12-18T11:13:48;122.53;;;39.40;;
17570;SDS011;8903;52.220;20.978;2022-12-18T11:16:23;105.60;;;38.57;;
17570;SDS011;8903;52.220;20.978;2022-12-18T11:18:50;92.10;;;37.20;;
17570;SDS011;8903;52.220;20.978;2022-12-18T11:21:17;84.60;;;35.90;;
17570;SDS011;8903;52.220;20.978;2022-12-18T11:23:46;111.80;;;43.10;;
17570;SDS011;8903;52.220;20.978;2022-12-18T11:26:16;104.00;;;40.47;;
17570;SDS011;8903;52.220;20.978;2022-12-18T11:28:43;102.03;;;41.23;;
17570;SDS011;8903;52.220;20.978;2022-12-18T11:31:20;106.30;;;40.97;;
17570;SDS011;8903;52.220;20.978;2022-12-18T11:33:51;104.93;;;41.53;;
17570;SDS011;8903;52.220;20.978;2022-12-18T11:36:22;106.57;;;40.00;;
17570;SDS011;8903;52.220;20.978;2022-12-18T11:38:51;111.40;;;41.30;;
17570;SDS011;8903;52.220;20.978;2022-12-18T11:41:22;94.50;;;40.03;;
17570;SDS011;8903;52.220;20.978;2022-12-18T11:44:14;103.87;;;39.13;;
17570;SDS011;8903;52.220;20.978;2022-12-18T11:46:47;106.67;;;39.80;;
17570;SDS011;8903;52.220;20.978;2022-12-18T11:49:19;90.90;;;39.20;;
17570;SDS011;8903;52.220;20.978;2022-12-18T11:51:51;90.90;;;41.00;;
17570;SDS011;8903;52.220;20.978;2022-12-18T11:54:26;90.77;;;38.63;;
17570;SDS011;8903;52.220;20.978;2022-12-18T11:56:53;109.60;;;40.30;;
17570;SDS011;8903;52.220;20.978;2022-12-18T11:59:27;108.40;;;41.73;;
17570;SDS011;8903;52.220;20.978;2022-12-18T12:02:00;95.37;;;36.83;;
17570;SDS011;8903;52.220;20.978;2022-12-18T12:04:46;103.87;;;41.47;;
17570;SDS011;8903;52.220;20.978;2022-12-18T12:07:22;90.23;;;38.17;;
17570;SDS011;8903;52.220;20.978;2022-12-18T12:09:58;92.30;;;37.17;;
17570;SDS011;8903;52.220;20.978;2022-12-18T12:12:36;101.87;;;39.63;;
17570;SDS011;8903;52.220;20.978;2022-12-18T12:15:13;110.20;;;39.03;;
17570;SDS011;8903;52.220;20.978;2022-12-18T12:17:50;96.33;;;40.00;;
17570;SDS011;8903;52.220;20.978;2022-12-18T12:20:24;97.70;;;38.27;;
17570;SDS011;8903;52.220;20.978;2022-12-18T12:22:59;107.83;;;40.57;;
17570;SDS011;8903;52.220;20.978;2022-12-18T12:25:33;98.27;;;40.13;;
17570;SDS011;8903;52.220;20.978;2022-12-18T12:28:09;108.03;;;40.20;;
17570;SDS011;8903;52.220;20.978;2022-12-18T12:30:49;107.23;;;42.00;;
17570;SDS011;8903;52.220;20.978;2022-12-18T12:33:28;103.10;;;39.37;;
17570;SDS011;8903;52.220;20.978;2022-12-18T12:36:07;95.70;;;37.50;;
17570;SDS011;8903;52.220;20.978;2022-12-18T12:38:40;94.73;;;40.00;;
17570;SDS011;8903;52.220;20.978;2022-12-18T12:41:13;98.17;;;41.63;;
17570;SDS011;8903;52.220;20.978;2022-12-18T12:43:58;106.47;;;43.83;;
17570;SDS011;8903;52.220;20.978;2022-12-18T12:46:27;111.57;;;45.27;;
17570;SDS011;8903;52.220;20.978;2022-12-18T12:48:58;109.83;;;42.00;;
17570;SDS011;8903;52.220;20.978;2022-12-18T12:51:29;94.80;;;41.07;;
17570;SDS011;8903;52.220;20.978;2022-12-18T12:53:59;115.90;;;44.80;;
17570;SDS011;8903;52.220;20.978;2022-12-18T12:56:30;102.87;;;42.67;;
17570;SDS011;8903;52.220;20.978;2022-12-18T12:59:05;98.27;;;41.83;;
17570;SDS011;8903;52.220;20.978;2022-12-18T13:01:40;100.87;;;42.90;;
17570;SDS011;8903;52.220;20.978;2022-12-18T13:04:18;102.63;;;44.63;;
17570;SDS011;8903;52.220;20.978;2022-12-18T13:06:50;100.53;;;39.47;;
17570;SDS011;8903;52.220;20.978;2022-12-18T13:09:29;96.10;;;37.60;;
17570;SDS011;8903;52.220;20.978;2022-12-18T13:12:02;103.43;;;39.40;;
17570;SDS011;8903;52.220;20.978;2022-12-18T13:14:47;101.30;;;40.43;;
17570;SDS011;8903;52.220;20.978;2022-12-18T13:20:04;101.07;;;40.80;;
17570;SDS011;8903;52.220;20.978;2022-12-18T13:22:39;93.20;;;38.77;;
17570;SDS011;8903;52.220;20.978;2022-12-18T13:28:03;118.07;;;42.40;;
17570;SDS011;8903;52.220;20.978;2022-12-18T13:30:43;105.03;;;41.03;;
17570;SDS011;8903;52.220;20.978;2022-12-18T13:36:16;93.33;;;39.73;;
17570;SDS011;8903;52.220;20.978;2022-12-18T13:39:10;94.27;;;40.60;;
17570;SDS011;8903;52.220;20.978;2022-12-18T13:41:48;100.57;;;39.47;;
17570;SDS011;8903;52.220;20.978;2022-12-18T13:44:24;112.33;;;40.27;;
17570;SDS011;8903;52.220;20.978;2022-12-18T13:46:54;104.57;;;40.30;;
17570;SDS011;8903;52.220;20.978;2022-12-18T13:49:22;113.60;;;39.07;;
17570;SDS011;8903;52.220;20.978;2022-12-18T13:51:52;107.83;;;40.60;;
17570;SDS011;8903;52.220;20.978;2022-12-18T13:54:23;101.07;;;39.37;;
17570;SDS011;8903;52.220;20.978;2022-12-18T13:56:53;102.73;;;38.90;;
17570;SDS011;8903;52.220;20.978;2022-12-18T13:59:20;96.37;;;42.07;;
17570;SDS011;8903;52.220;20.978;2022-12-18T14:01:52;87.33;;;38.87;;
17570;SDS011;8903;52.220;20.978;2022-12-18T14:04:22;91.80;;;36.60;;
17570;SDS011;8903;52.220;20.978;2022-12-18T14:06:52;79.83;;;34.63;;
17570;SDS011;8903;52.220;20.978;2022-12-18T14:09:23;88.80;;;36.30;;
17570;SDS011;8903;52.220;20.978;2022-12-18T14:11:52;97.77;;;36.73;;
17570;SDS011;8903;52.220;20.978;2022-12-18T14:14:42;88.77;;;39.93;;
17570;SDS011;8903;52.220;20.978;2022-12-18T14:17:11;81.00;;;34.40;;
17570;SDS011;8903;52.220;20.978;2022-12-18T14:19:42;85.60;;;36.37;;
17570;SDS011;8903;52.220;20.978;2022-12-18T14:22:15;96.83;;;38.90;;
17570;SDS011;8903;52.220;20.978;2022-12-18T14:24:43;88.20;;;37.30;;
17570;SDS011;8903;52.220;20.978;2022-12-18T14:27:19;104.30;;;42.87;;
17570;SDS011;8903;52.220;20.978;2022-12-18T14:29:48;91.87;;;37.60;;
17570;SDS011;8903;52.220;20.978;2022-12-18T14:32:17;87.17;;;36.80;;
17570;SDS011;8903;52.220;20.978;2022-12-18T14:34:45;84.00;;;38.00;;
17570;SDS011;8903;52.220;20.978;2022-12-18T14:37:14;114.50;;;39.23;;
17570;SDS011;8903;52.220;20.978;2022-12-18T14:39:53;103.73;;;38.53;;
17570;SDS011;8903;52.220;20.978;2022-12-18T14:42:21;90.40;;;36.60;;
17570;SDS011;8903;52.220;20.978;2022-12-18T14:47:54;89.30;;;36.80;;
17570;SDS011;8903;52.220;20.978;2022-12-18T14:50:21;80.30;;;36.33;;
17570;SDS011;8903;52.220;20.978;2022-12-18T14:52:48;101.93;;;38.00;;